sensor_id;sensor_type;location;lat;lon;timestamp;P1;durP1;ratioP1;P2;durP2;ratioP2
57313;SDS011;53202;50.976;18.216;2022-10-16T00:01:19;36.40;;;22.70;;
57313;SDS011;53202;50.976;18.216;2022-10-16T00:11:07;26.70;;;15.50;;
57313;SDS011;53202;50.976;18.216;2022-10-16T00:20:53;15.20;;;8.80;;
57313;SDS011;53202;50.976;18.216;2022-10-16T00:23:19;28.70;;;23.40;;
57313;SDS011;53202;50.976;18.216;2022-10-16T00:33:12;20.50;;;18.30;;
57313;SDS011;53202;50.976;18.216;2022-10-16T00:42:55;17.40;;;14.30;;
57313;SDS011;53202;50.976;18.216;2022-10-16T00:52:55;15.70;;;11.70;;
57313;SDS011;53202;50.976;18.216;2022-10-16T01:10:23;16.40;;;14.70;;
57313;SDS011;53202;50.976;18.216;2022-10-16T01:20:41;39.40;;;27.00;;
57313;SDS011;53202;50.976;18.216;2022-10-16T01:30:58;34.00;;;29.80;;
57313;SDS011;53202;50.976;18.216;2022-10-16T01:40:46;39.90;;;28.40;;
57313;SDS011;53202;50.976;18.216;2022-10-16T01:50:37;33.40;;;23.90;;
57313;SDS011;53202;50.976;18.216;2022-10-16T02:00:25;30.20;;;25.90;;
57313;SDS011;53202;50.976;18.216;2022-10-16T02:10:28;37.70;;;29.60;;
57313;SDS011;53202;50.976;18.216;2022-10-16T02:20:15;34.80;;;27.10;;
57313;SDS011;53202;50.976;18.216;2022-10-16T02:25:10;46.90;;;37.90;;
57313;SDS011;53202;50.976;18.216;2022-10-16T02:35:09;27.50;;;21.40;;
57313;SDS011;53202;50.976;18.216;2022-10-16T02:44:57;37.20;;;27.00;;
57313;SDS011;53202;50.976;18.216;2022-10-16T02:54:40;31.80;;;23.60;;
57313;SDS011;53202;50.976;18.216;2022-10-16T03:04:24;19.70;;;15.50;;
57313;SDS011;53202;50.976;18.216;2022-10-16T03:14:07;22.70;;;15.40;;
57313;SDS011;53202;50.976;18.216;2022-10-16T03:23:50;22.20;;;20.00;;
57313;SDS011;53202;50.976;18.216;2022-10-16T03:33:34;28.90;;;22.60;;
57313;SDS011;53202;50.976;18.216;2022-10-16T03:43:17;33.50;;;23.90;;
57313;SDS011;53202;50.976;18.216;2022-10-16T03:53:00;20.90;;;16.80;;
57313;SDS011;53202;50.976;18.216;2022-10-16T04:02:43;17.40;;;15.70;;
57313;SDS011;53202;50.976;18.216;2022-10-16T04:19:46;14.40;;;13.00;;
57313;SDS011;53202;50.976;18.216;2022-10-16T04:29:30;28.20;;;21.30;;
57313;SDS011;53202;50.976;18.216;2022-10-16T04:39:14;32.60;;;22.80;;
57313;SDS011;53202;50.976;18.216;2022-10-16T04:48:58;30.40;;;18.80;;
57313;SDS011;53202;50.976;18.216;2022-10-16T04:58:44;37.90;;;28.30;;
57313;SDS011;53202;50.976;18.216;2022-10-16T05:08:29;33.80;;;27.80;;
57313;SDS011;53202;50.976;18.216;2022-10-16T05:18:13;27.70;;;21.80;;
57313;SDS011;53202;50.976;18.216;2022-10-16T05:27:57;39.40;;;26.40;;
57313;SDS011;53202;50.976;18.216;2022-10-16T05:37:41;47.40;;;29.10;;
57313;SDS011;53202;50.976;18.216;2022-10-16T05:47:25;66.80;;;26.90;;
57313;SDS011;53202;50.976;18.216;2022-10-16T05:57:08;32.90;;;28.70;;
57313;SDS011;53202;50.976;18.216;2022-10-16T06:06:51;34.90;;;28.00;;
57313;SDS011;53202;50.976;18.216;2022-10-16T06:16:36;42.30;;;27.20;;
57313;SDS011;53202;50.976;18.216;2022-10-16T06:26:24;36.70;;;25.50;;
57313;SDS011;53202;50.976;18.216;2022-10-16T06:36:13;35.80;;;27.40;;
57313;SDS011;53202;50.976;18.216;2022-10-16T06:43:33;40.80;;;34.40;;
57313;SDS011;53202;50.976;18.216;2022-10-16T06:53:21;24.90;;;20.50;;
57313;SDS011;53202;50.976;18.216;2022-10-16T07:03:04;15.70;;;11.90;;
57313;SDS011;53202;50.976;18.216;2022-10-16T07:12:49;42.00;;;27.50;;
57313;SDS011;53202;50.976;18.216;2022-10-16T07:22:32;29.30;;;24.90;;
57313;SDS011;53202;50.976;18.216;2022-10-16T07:32:17;20.20;;;18.00;;
57313;SDS011;53202;50.976;18.216;2022-10-16T07:42:00;22.30;;;19.90;;
57313;SDS011;53202;50.976;18.216;2022-10-16T07:51:43;26.20;;;19.30;;
57313;SDS011;53202;50.976;18.216;2022-10-16T08:01:27;30.80;;;21.40;;
57313;SDS011;53202;50.976;18.216;2022-10-16T08:11:13;22.70;;;17.90;;
57313;SDS011;53202;50.976;18.216;2022-10-16T08:21:01;12.50;;;11.20;;
57313;SDS011;53202;50.976;18.216;2022-10-16T08:30:46;18.20;;;13.50;;
57313;SDS011;53202;50.976;18.216;2022-10-16T08:40:30;6.80;;;6.20;;
57313;SDS011;53202;50.976;18.216;2022-10-16T08:50:43;11.80;;;9.20;;
57313;SDS011;53202;50.976;18.216;2022-10-16T08:53:13;27.60;;;22.80;;
57313;SDS011;53202;50.976;18.216;2022-10-16T09:11:05;18.20;;;7.60;;
57313;SDS011;53202;50.976;18.216;2022-10-16T09:21:30;17.90;;;16.00;;
57313;SDS011;53202;50.976;18.216;2022-10-16T09:31:25;19.80;;;15.20;;
57313;SDS011;53202;50.976;18.216;2022-10-16T09:41:15;16.10;;;12.90;;
57313;SDS011;53202;50.976;18.216;2022-10-16T09:51:23;26.50;;;14.30;;
57313;SDS011;53202;50.976;18.216;2022-10-16T10:01:17;40.80;;;16.50;;
57313;SDS011;53202;50.976;18.216;2022-10-16T10:29:00;31.70;;;20.60;;
57313;SDS011;53202;50.976;18.216;2022-10-16T10:39:12;8.60;;;7.70;;
57313;SDS011;53202;50.976;18.216;2022-10-16T10:57:21;9.20;;;8.40;;
57313;SDS011;53202;50.976;18.216;2022-10-16T11:07:19;8.60;;;7.70;;
57313;SDS011;53202;50.976;18.216;2022-10-16T11:17:17;21.80;;;13.00;;
57313;SDS011;53202;50.976;18.216;2022-10-16T11:27:15;15.00;;;10.70;;
57313;SDS011;53202;50.976;18.216;2022-10-16T11:37:21;15.40;;;12.10;;
57313;SDS011;53202;50.976;18.216;2022-10-16T11:47:36;5.90;;;5.30;;
57313;SDS011;53202;50.976;18.216;2022-10-16T11:57:50;13.70;;;11.30;;
57313;SDS011;53202;50.976;18.216;2022-10-16T12:15:30;11.90;;;10.90;;
57313;SDS011;53202;50.976;18.216;2022-10-16T12:25:26;12.00;;;10.40;;
57313;SDS011;53202;50.976;18.216;2022-10-16T12:35:24;10.90;;;9.80;;
57313;SDS011;53202;50.976;18.216;2022-10-16T12:55:18;22.20;;;12.60;;
57313;SDS011;53202;50.976;18.216;2022-10-16T13:16:03;18.20;;;14.40;;
57313;SDS011;53202;50.976;18.216;2022-10-16T13:36:48;5.80;;;4.60;;
57313;SDS011;53202;50.976;18.216;2022-10-16T13:46:59;11.80;;;8.20;;
57313;SDS011;53202;50.976;18.216;2022-10-16T13:56:48;13.10;;;11.20;;
57313;SDS011;53202;50.976;18.216;2022-10-16T14:06:40;8.20;;;6.60;;
57313;SDS011;53202;50.976;18.216;2022-10-16T14:16:47;11.60;;;7.40;;
57313;SDS011;53202;50.976;18.216;2022-10-16T14:26:41;8.40;;;5.10;;
57313;SDS011;53202;50.976;18.216;2022-10-16T14:36:47;12.10;;;8.70;;
57313;SDS011;53202;50.976;18.216;2022-10-16T14:46:37;12.10;;;10.90;;
57313;SDS011;53202;50.976;18.216;2022-10-16T14:56:45;17.20;;;11.90;;
57313;SDS011;53202;50.976;18.216;2022-10-16T15:13:52;16.20;;;11.30;;
57313;SDS011;53202;50.976;18.216;2022-10-16T15:23:48;18.10;;;16.20;;
57313;SDS011;53202;50.976;18.216;2022-10-16T15:33:33;7.90;;;7.00;;
57313;SDS011;53202;50.976;18.216;2022-10-16T15:57:55;16.40;;;14.70;;
57313;SDS011;53202;50.976;18.216;2022-10-16T16:07:41;17.70;;;15.80;;
57313;SDS011;53202;50.976;18.216;2022-10-16T16:17:27;35.30;;;25.30;;
57313;SDS011;53202;50.976;18.216;2022-10-16T16:27:10;31.90;;;26.20;;
57313;SDS011;53202;50.976;18.216;2022-10-16T16:36:54;20.00;;;17.70;;
57313;SDS011;53202;50.976;18.216;2022-10-16T16:39:21;56.50;;;41.20;;
57313;SDS011;53202;50.976;18.216;2022-10-16T16:49:06;49.60;;;35.60;;
57313;SDS011;53202;50.976;18.216;2022-10-16T16:58:55;54.20;;;32.90;;
57313;SDS011;53202;50.976;18.216;2022-10-16T17:08:43;37.10;;;31.50;;
57313;SDS011;53202;50.976;18.216;2022-10-16T17:18:31;25.80;;;21.70;;
57313;SDS011;53202;50.976;18.216;2022-10-16T17:28:16;48.10;;;38.40;;
57313;SDS011;53202;50.976;18.216;2022-10-16T17:38:01;31.80;;;24.90;;
57313;SDS011;53202;50.976;18.216;2022-10-16T17:47:45;51.30;;;36.80;;
57313;SDS011;53202;50.976;18.216;2022-10-16T18:04:46;76.40;;;53.30;;
57313;SDS011;53202;50.976;18.216;2022-10-16T18:09:39;63.10;;;49.20;;
57313;SDS011;53202;50.976;18.216;2022-10-16T18:19:25;61.30;;;36.30;;
57313;SDS011;53202;50.976;18.216;2022-10-16T18:29:13;48.80;;;35.90;;
57313;SDS011;53202;50.976;18.216;2022-10-16T18:38:58;47.70;;;31.70;;
57313;SDS011;53202;50.976;18.216;2022-10-16T18:48:44;30.60;;;27.40;;
57313;SDS011;53202;50.976;18.216;2022-10-16T18:58:34;62.80;;;35.50;;
57313;SDS011;53202;50.976;18.216;2022-10-16T19:23:04;41.20;;;26.20;;
57313;SDS011;53202;50.976;18.216;2022-10-16T19:33:00;31.70;;;11.70;;
57313;SDS011;53202;50.976;18.216;2022-10-16T19:42:43;57.30;;;30.40;;
57313;SDS011;53202;50.976;18.216;2022-10-16T19:52:33;61.30;;;28.40;;
57313;SDS011;53202;50.976;18.216;2022-10-16T20:02:17;31.80;;;25.20;;
57313;SDS011;53202;50.976;18.216;2022-10-16T20:12:01;28.80;;;25.70;;
57313;SDS011;53202;50.976;18.216;2022-10-16T20:21:45;39.30;;;22.70;;
57313;SDS011;53202;50.976;18.216;2022-10-16T20:31:30;30.30;;;24.90;;
57313;SDS011;53202;50.976;18.216;2022-10-16T20:48:34;30.00;;;19.90;;
57313;SDS011;53202;50.976;18.216;2022-10-16T20:58:40;37.10;;;28.90;;
57313;SDS011;53202;50.976;18.216;2022-10-16T21:08:27;38.70;;;31.60;;
57313;SDS011;53202;50.976;18.216;2022-10-16T21:18:10;32.60;;;24.30;;
57313;SDS011;53202;50.976;18.216;2022-10-16T21:27:58;38.80;;;29.70;;
57313;SDS011;53202;50.976;18.216;2022-10-16T21:37:46;43.60;;;31.80;;
57313;SDS011;53202;50.976;18.216;2022-10-16T21:47:31;32.00;;;27.30;;
57313;SDS011;53202;50.976;18.216;2022-10-16T21:57:15;27.10;;;24.20;;
57313;SDS011;53202;50.976;18.216;2022-10-16T22:06:59;36.30;;;29.50;;
57313;SDS011;53202;50.976;18.216;2022-10-16T22:16:43;26.40;;;23.60;;
57313;SDS011;53202;50.976;18.216;2022-10-16T22:26:28;44.80;;;29.60;;
57313;SDS011;53202;50.976;18.216;2022-10-16T22:36:18;32.60;;;25.20;;
57313;SDS011;53202;50.976;18.216;2022-10-16T22:46:04;27.30;;;18.50;;
57313;SDS011;53202;50.976;18.216;2022-10-16T22:55:49;41.30;;;23.80;;
57313;SDS011;53202;50.976;18.216;2022-10-16T23:05:33;29.60;;;21.70;;
57313;SDS011;53202;50.976;18.216;2022-10-16T23:15:20;9.40;;;8.40;;
57313;SDS011;53202;50.976;18.216;2022-10-16T23:25:03;24.90;;;22.20;;
57313;SDS011;53202;50.976;18.216;2022-10-16T23:34:48;11.20;;;10.20;;
57313;SDS011;53202;50.976;18.216;2022-10-16T23:44:31;32.80;;;20.60;;
57313;SDS011;53202;50.976;18.216;2022-10-16T23:54:15;26.30;;;20.10;;
